(°C)
25°
27°
30°
31°
32°
32°
31°
(°C)
27°
29°
31°
32°
32°
32°
30°
NNO
S
SSE
SSE
S
SSO
SSO
(km/h)
2-6
2-8
5-11
8-15
12-22
16-25
17-28
(mm)
0
0
0
0
0
0
0
(%)
0
0
0
0
0
0
0

Elevación del sol

/ 41.6°
sun-icon
UV 6
07:47
20:10
Gibosa creciente (149°)
19:17
04:47

METAR a Alcantarilla (LERI)

Hora Condiciones Temperatura/
Punto de condensación
Viento Visibilidad Tiempo Nubes Presión Cambiar Bruto
VFR 25°C / 17°C variable 2kt >10km - Few Clouds 4200ft 1015 No Significant change LERI 180900Z VRB02KT 9999 FEW042TCU 25/17 Q1015 NOSIG
VFR 24°C / 17°C variable 1kt >10km - Few Clouds 4200ft 1014 No Significant change LERI 180830Z VRB01KT 9999 FEW042TCU 24/17 Q1014 NOSIG
VFR 23°C / 16°C variable 1kt >10km - Few Clouds 4200ft 1014 No Significant change LERI 180800Z VRB01KT 9999 FEW042 23/16 Q1014 NOSIG
VFR 22°C / 16°C variable 2kt >10km - Few Clouds 3800ft 1014 No Significant change LERI 180730Z VRB02KT 9999 FEW038 22/16 Q1014 NOSIG
VFR 20°C / 16°C variable 2kt >10km - Few Clouds 3800ft 1014 No Significant change LERI 180700Z VRB02KT 9999 FEW038 20/16 Q1014 NOSIG
VFR 18°C / 15°C 210º 2kt >10km - Few Clouds 4500ft 1014 No Significant change LERI 180630Z 21002KT 9999 FEW045 18/15 Q1014 NOSIG
VFR 18°C / 16°C 220º 1kt >10km - Few Clouds 6200ft 1014 No Significant change LERI 180600Z 22001KT 9999 FEW062 18/16 Q1014 NOSIG
VFR 27°C / 16°C 190º variable 150º to 220º 5kt >10km - Clouds and Visibility OK 1013 No Significant change LERI 171800Z 19005KT 150V220 CAVOK 27/16 Q1013 NOSIG
VFR 28°C / 16°C 160º variable 140º to 200º 9kt >10km - Clouds and Visibility OK 1012 No Significant change LERI 171730Z 16009KT 140V200 CAVOK 28/16 Q1012 NOSIG
VFR 29°C / 16°C 150º variable 110º to 190º 11kt >10km - Clouds and Visibility OK 1012 No Significant change LERI 171700Z 15011KT 110V190 CAVOK 29/16 Q1012 NOSIG
VFR 29°C / 16°C 160º variable 130º to 190º 12kt >10km - Clouds and Visibility OK 1012 No Significant change LERI 171630Z 16012KT 130V190 CAVOK 29/16 Q1012 NOSIG
VFR 30°C / 16°C 160º variable 120º to 190º 11kt >10km - Few Clouds 6000ft 1012 No Significant change LERI 171600Z 16011KT 120V190 9999 FEW060 30/16 Q1012 NOSIG
VFR 31°C / 15°C 150º variable 070º to 240º 13kt Gust 26kt >10km - Few Clouds 6000ft 1012 No Significant change LERI 171530Z 15013G26KT 070V240 9999 FEW060 31/15 Q1012 NOSIG
VFR 32°C / 15°C 150º variable 110º to 210º 14kt Gust 24kt >10km - Few Clouds 6000ft 1012 No Significant change LERI 171500Z 15014G24KT 110V210 9999 FEW060 32/15 Q1012 NOSIG
VFR 32°C / 15°C 150º variable 110º to 200º 16kt >10km - Few Clouds 6000ft 1012 No Significant change LERI 171454Z 15016KT 110V200 9999 FEW060 32/15 Q1012 NOSIG
VFR 31°C / 14°C 80º variable 040º to 140º 8kt >10km - Few Clouds 6000ft 1013 No Significant change LERI 171430Z 08008KT 040V140 9999 FEW060 31/14 Q1013 NOSIG
VFR 32°C / 14°C 130º variable 050º to 220º 5kt >10km - Few Clouds 6000ft 1013 No Significant change LERI 171400Z 13005KT 050V220 9999 FEW060 32/14 Q1013 NOSIG
VFR 30°C / 14°C 150º variable 080º to 210º 5kt >10km - Few Clouds 6000ft 1013 No Significant change LERI 171330Z 15005KT 080V210 9999 FEW060 30/14 Q1013 NOSIG
VFR 32°C / 15°C 160º 3kt >10km - Few Clouds 6000ft 1014 No Significant change LERI 171300Z 16003KT 9999 FEW060 32/15 Q1014 NOSIG
VFR 30°C / 14°C 90º variable 050º to 160º 5kt >10km - Few Clouds 6000ft 1014 No Significant change LERI 171230Z 09005KT 050V160 9999 FEW060 30/14 Q1014 NOSIG
VFR 30°C / 14°C variable 4kt >10km - Few Clouds 6000ft 1015 No Significant change LERI 171200Z VRB04KT 9999 FEW060 30/14 Q1015 NOSIG
VFR 30°C / 14°C variable 4kt >10km - Few Clouds 6000ft 1015 No Significant change LERI 171130Z VRB04KT 9999 FEW060TCU 30/14 Q1015 NOSIG
VFR 29°C / 15°C variable 3kt >10km - Few Clouds 6000ft 1016 No Significant change LERI 171100Z VRB03KT 9999 FEW060 29/15 Q1016 NOSIG
VFR 29°C / 15°C 80º 1kt >10km - Few Clouds 6000ft 1016 No Significant change LERI 171030Z 08001KT 9999 FEW060 29/15 Q1016 NOSIG

VFR

25°C / 17°C

[Más]
Viento variable 2kt
Visibilidad >10km
Tiempo -
Nubes Few Clouds 4200ft
Presión 1015
Cambiar No Significant change
Bruto LERI 180900Z VRB02KT 9999 FEW042TCU 25/17 Q1015 NOSIG

VFR

24°C / 17°C

[Más]
Viento variable 1kt
Visibilidad >10km
Tiempo -
Nubes Few Clouds 4200ft
Presión 1014
Cambiar No Significant change
Bruto LERI 180830Z VRB01KT 9999 FEW042TCU 24/17 Q1014 NOSIG

VFR

23°C / 16°C

[Más]
Viento variable 1kt
Visibilidad >10km
Tiempo -
Nubes Few Clouds 4200ft
Presión 1014
Cambiar No Significant change
Bruto LERI 180800Z VRB01KT 9999 FEW042 23/16 Q1014 NOSIG

VFR

22°C / 16°C

[Más]
Viento variable 2kt
Visibilidad >10km
Tiempo -
Nubes Few Clouds 3800ft
Presión 1014
Cambiar No Significant change
Bruto LERI 180730Z VRB02KT 9999 FEW038 22/16 Q1014 NOSIG

VFR

20°C / 16°C

[Más]
Viento variable 2kt
Visibilidad >10km
Tiempo -
Nubes Few Clouds 3800ft
Presión 1014
Cambiar No Significant change
Bruto LERI 180700Z VRB02KT 9999 FEW038 20/16 Q1014 NOSIG

VFR

18°C / 15°C

[Más]
Viento 210º 2kt
Visibilidad >10km
Tiempo -
Nubes Few Clouds 4500ft
Presión 1014
Cambiar No Significant change
Bruto LERI 180630Z 21002KT 9999 FEW045 18/15 Q1014 NOSIG

VFR

18°C / 16°C

[Más]
Viento 220º 1kt
Visibilidad >10km
Tiempo -
Nubes Few Clouds 6200ft
Presión 1014
Cambiar No Significant change
Bruto LERI 180600Z 22001KT 9999 FEW062 18/16 Q1014 NOSIG

VFR

27°C / 16°C

[Más]
Viento 190º variable 150º to 220º 5kt
Visibilidad >10km
Tiempo -
Nubes Clouds and Visibility OK
Presión 1013
Cambiar No Significant change
Bruto LERI 171800Z 19005KT 150V220 CAVOK 27/16 Q1013 NOSIG

VFR

28°C / 16°C

[Más]
Viento 160º variable 140º to 200º 9kt
Visibilidad >10km
Tiempo -
Nubes Clouds and Visibility OK
Presión 1012
Cambiar No Significant change
Bruto LERI 171730Z 16009KT 140V200 CAVOK 28/16 Q1012 NOSIG

VFR

29°C / 16°C

[Más]
Viento 150º variable 110º to 190º 11kt
Visibilidad >10km
Tiempo -
Nubes Clouds and Visibility OK
Presión 1012
Cambiar No Significant change
Bruto LERI 171700Z 15011KT 110V190 CAVOK 29/16 Q1012 NOSIG

VFR

29°C / 16°C

[Más]
Viento 160º variable 130º to 190º 12kt
Visibilidad >10km
Tiempo -
Nubes Clouds and Visibility OK
Presión 1012
Cambiar No Significant change
Bruto LERI 171630Z 16012KT 130V190 CAVOK 29/16 Q1012 NOSIG

VFR

30°C / 16°C

[Más]
Viento 160º variable 120º to 190º 11kt
Visibilidad >10km
Tiempo -
Nubes Few Clouds 6000ft
Presión 1012
Cambiar No Significant change
Bruto LERI 171600Z 16011KT 120V190 9999 FEW060 30/16 Q1012 NOSIG

VFR

31°C / 15°C

[Más]
Viento 150º variable 070º to 240º 13kt Gust 26kt
Visibilidad >10km
Tiempo -
Nubes Few Clouds 6000ft
Presión 1012
Cambiar No Significant change
Bruto LERI 171530Z 15013G26KT 070V240 9999 FEW060 31/15 Q1012 NOSIG

VFR

32°C / 15°C

[Más]
Viento 150º variable 110º to 210º 14kt Gust 24kt
Visibilidad >10km
Tiempo -
Nubes Few Clouds 6000ft
Presión 1012
Cambiar No Significant change
Bruto LERI 171500Z 15014G24KT 110V210 9999 FEW060 32/15 Q1012 NOSIG

VFR

32°C / 15°C

[Más]
Viento 150º variable 110º to 200º 16kt
Visibilidad >10km
Tiempo -
Nubes Few Clouds 6000ft
Presión 1012
Cambiar No Significant change
Bruto LERI 171454Z 15016KT 110V200 9999 FEW060 32/15 Q1012 NOSIG

VFR

31°C / 14°C

[Más]
Viento 80º variable 040º to 140º 8kt
Visibilidad >10km
Tiempo -
Nubes Few Clouds 6000ft
Presión 1013
Cambiar No Significant change
Bruto LERI 171430Z 08008KT 040V140 9999 FEW060 31/14 Q1013 NOSIG

VFR

32°C / 14°C

[Más]
Viento 130º variable 050º to 220º 5kt
Visibilidad >10km
Tiempo -
Nubes Few Clouds 6000ft
Presión 1013
Cambiar No Significant change
Bruto LERI 171400Z 13005KT 050V220 9999 FEW060 32/14 Q1013 NOSIG

VFR

30°C / 14°C

[Más]
Viento 150º variable 080º to 210º 5kt
Visibilidad >10km
Tiempo -
Nubes Few Clouds 6000ft
Presión 1013
Cambiar No Significant change
Bruto LERI 171330Z 15005KT 080V210 9999 FEW060 30/14 Q1013 NOSIG

VFR

32°C / 15°C

[Más]
Viento 160º 3kt
Visibilidad >10km
Tiempo -
Nubes Few Clouds 6000ft
Presión 1014
Cambiar No Significant change
Bruto LERI 171300Z 16003KT 9999 FEW060 32/15 Q1014 NOSIG

VFR

30°C / 14°C

[Más]
Viento 90º variable 050º to 160º 5kt
Visibilidad >10km
Tiempo -
Nubes Few Clouds 6000ft
Presión 1014
Cambiar No Significant change
Bruto LERI 171230Z 09005KT 050V160 9999 FEW060 30/14 Q1014 NOSIG

VFR

30°C / 14°C

[Más]
Viento variable 4kt
Visibilidad >10km
Tiempo -
Nubes Few Clouds 6000ft
Presión 1015
Cambiar No Significant change
Bruto LERI 171200Z VRB04KT 9999 FEW060 30/14 Q1015 NOSIG

VFR

30°C / 14°C

[Más]
Viento variable 4kt
Visibilidad >10km
Tiempo -
Nubes Few Clouds 6000ft
Presión 1015
Cambiar No Significant change
Bruto LERI 171130Z VRB04KT 9999 FEW060TCU 30/14 Q1015 NOSIG

VFR

29°C / 15°C

[Más]
Viento variable 3kt
Visibilidad >10km
Tiempo -
Nubes Few Clouds 6000ft
Presión 1016
Cambiar No Significant change
Bruto LERI 171100Z VRB03KT 9999 FEW060 29/15 Q1016 NOSIG

VFR

29°C / 15°C

[Más]
Viento 80º 1kt
Visibilidad >10km
Tiempo -
Nubes Few Clouds 6000ft
Presión 1016
Cambiar No Significant change
Bruto LERI 171030Z 08001KT 9999 FEW060 29/15 Q1016 NOSIG

TAF a Alcantarilla (LERI)

From till


Maximum Temperature 33ºC on . Minimum Temperature 17ºC on .
From till Wind 240º 4kt. Visibility 10km or more. Few Clouds 3000ft.
Becoming from till Wind 180º 10kt. Visibility 10km or more. Few Clouds 3000ft.
Becoming from till Wind 250º 4kt. Visibility 10km or more. Few Clouds 3000ft.
With 40% probability, Temporarly from till Broken Clouds 1000ft.

Bruto: TAF LERI 180500Z 1806/1906 24004KT 9999 FEW030 TX33/1814Z TN17/1806Z BECMG 1813/1815 18010KT BECMG 1817/1819 25004KT PROB40 TEMPO 1904/1906 BKN010

Imágenes actuales de satélite y lluvia para Alcantarilla, España

El marcador de lugar se coloca en Alcantarilla. [Más]

La imagen de satélite en tiempo real se aprovecha de la combinación de bandas de la luz visible y de la luz infrarrojo. Como se puede detectar cambios de temperaturas atreves de la banda infrarrojo, la imagen no está escura de noche. No obstante, la niebla y las nubes bajas son apenas visibles en las imágenes infrarrojo como las diferencias de temperaturas entre el suelo y la niebla son muy pequeñas. Por eso son casi invisibles durante la noche. Las imágenes de satélite del Meteosat (Europa) son actualizados en tiempo real cada 5 minutos. Las imágenes del GOES-16/GOES-17 (América del Norte y América del Sur) y Himawari (Asia) son actualizados cada 10 minutos.

La precipitación se estima a partir de radares y satélites. Estimaciones de precipitación de la noche de los satélites son menos precisas que durante el día. Cruces naranjas identifican lugares donde relámpagos fueron detectados (en Europa).

Copyright 2021 EUMETSAT / meteoblue. Datos de relámpagos proporcionados por nowcast.

Radar para Alcantarilla

llovizna
Leve
Moderado
Fuerte
Muy fuerte
Granizo

El marcador de lugar se coloca en Alcantarilla. Esta animación muestra lo radar de precipitaciones para la última 1 hora. Las lloviznas o las nevadas ligeras pueden ser invisibles para el radar. La intensidad de la precipitación está codificada por colores, que van del azul claro al naranja.
Radar data source: AEMET.

Situación meteorológica actual y advertencias

EUMETNET – MeteoAlarm

pictomap

Fuente: AEMET

Los retrasos de tiempo entre este sitio web y www.meteoalarm.eu son posibles. Para obtener la información más actualizada sobre los niveles de alerta según lo publicado por los Servicios Meteorológicos Nacionales participantes, por favor, utilice www.meteoalarm.eu.